Lyons, Texas
Current Conditions -  °F | °C
As of 2:35 PM on Friday 28 Nov 2014 (Local Time) from KRWV Reporting Station
Few Clouds Few Clouds  
Wind Chill: 70°   Ceiling: Unl
Heat Index: 70°   Visibility: 10mi
Dew Point: 54°   Wind: 16mph
Humidity: 56%   Direction: 180°S
Pressure: 30.18"   Gusts: 22mph
Location:  30.39°N, 96.56°W
Report Text: KRWV 282035Z AUTO 18014G19KT 10SM FEW041 21/12 A3018 RMK AO2
Loading
Personal Weather Stations






























Interactive Weather Map New forecast layout! Learn more

10-Day Weather Forecast

Advertisements
Track Severe Weather on mobile